Time;durP1;ratioP1;P1;durP2;ratioP2;P2;SDS_P1;SDS_P2;PMS_P1;PMS_P2;Temp;Humidity;BMP_temperature;BMP_pressure;BME280_temperature;BME280_humidity;BME280_pressure;Samples;Min_cycle;Max_cycle;Signal;HPM_P1;HPM_P2
2024/01/14 00:00:10;;;;;;;27.90;15.43;;;6.80;78.90;;;;;;5085507;28;20035;-70
2024/01/14 00:02:38;;;;;;;27.77;16.67;;;6.80;78.90;;;;;;5081415;28;20079;-70
2024/01/14 00:05:08;;;;;;;30.30;16.27;;;6.80;78.90;;;;;;5076401;28;20033;-70
2024/01/14 00:07:33;;;;;;;30.03;15.30;;;6.80;78.90;;;;;;5077838;28;20032;-70
2024/01/14 00:09:59;;;;;;;25.87;15.23;;;6.80;79.00;;;;;;5065314;28;20476;-70
2024/01/14 00:12:25;;;;;;;27.73;15.30;;;6.80;79.00;;;;;;5076470;28;20494;-70
2024/01/14 00:14:51;;;;;;;27.07;15.20;;;6.70;79.00;;;;;;5080325;28;20033;-70
2024/01/14 00:17:17;;;;;;;27.37;15.37;;;6.70;79.00;;;;;;5085802;28;20028;-70
2024/01/14 00:19:43;;;;;;;28.43;15.30;;;6.70;79.00;;;;;;5091962;28;20020;-70
2024/01/14 00:22:09;;;;;;;26.67;14.90;;;6.80;79.10;;;;;;5094049;28;20101;-70
2024/01/14 00:24:34;;;;;;;26.77;15.47;;;6.80;79.10;;;;;;5093833;28;20441;-70
2024/01/14 00:27:00;;;;;;;25.53;15.40;;;6.80;79.00;;;;;;5093983;28;20024;-70
2024/01/14 00:29:26;;;;;;;28.80;16.00;;;6.80;79.00;;;;;;5093458;28;20020;-71
2024/01/14 00:31:52;;;;;;;25.57;15.23;;;6.80;79.00;;;;;;5093868;28;20032;-70
2024/01/14 00:34:18;;;;;;;27.80;15.17;;;6.80;79.00;;;;;;5091962;28;20119;-70
2024/01/14 00:36:43;;;;;;;26.30;15.13;;;6.80;79.00;;;;;;5093843;28;20034;-70
2024/01/14 00:39:10;;;;;;;25.70;15.27;;;6.80;79.00;;;;;;5092852;28;20055;-72
2024/01/14 00:41:36;;;;;;;29.33;15.90;;;6.80;79.10;;;;;;5093564;28;20329;-70
2024/01/14 00:44:02;;;;;;;27.13;14.73;;;6.80;79.10;;;;;;5093534;28;20020;-70
2024/01/14 00:46:27;;;;;;;28.80;14.77;;;6.80;79.10;;;;;;5094173;28;20032;-70
2024/01/14 00:48:53;;;;;;;26.43;15.87;;;6.70;79.10;;;;;;5092127;28;20035;-70
2024/01/14 00:51:19;;;;;;;30.97;16.60;;;6.80;79.10;;;;;;5093158;28;20376;-70
2024/01/14 00:53:45;;;;;;;29.63;16.10;;;6.70;79.10;;;;;;5091736;28;20036;-69
2024/01/14 00:56:12;;;;;;;29.53;16.00;;;6.80;79.10;;;;;;5092179;28;20445;-70
2024/01/14 00:58:38;;;;;;;28.37;15.93;;;6.80;79.10;;;;;;5104081;28;20460;-71
2024/01/14 01:01:05;;;;;;;30.67;17.27;;;6.80;79.10;;;;;;5092350;28;20437;-72
2024/01/14 01:03:31;;;;;;;30.03;16.07;;;6.80;79.10;;;;;;5085734;28;20065;-70
2024/01/14 01:05:57;;;;;;;30.10;16.63;;;6.80;79.10;;;;;;5093549;28;20023;-70
2024/01/14 01:08:22;;;;;;;31.00;16.37;;;6.80;79.10;;;;;;5093515;28;20101;-70
2024/01/14 01:10:49;;;;;;;28.97;16.13;;;6.80;79.10;;;;;;5093770;28;20420;-70
2024/01/14 01:13:15;;;;;;;27.80;16.03;;;6.80;79.10;;;;;;5103258;28;20029;-70
2024/01/14 01:15:41;;;;;;;29.17;15.73;;;6.80;79.10;;;;;;5091913;28;20032;-70
2024/01/14 01:18:07;;;;;;;36.40;19.10;;;6.80;79.10;;;;;;5092857;28;20035;-70
2024/01/14 01:20:32;;;;;;;30.90;16.83;;;6.80;79.10;;;;;;5096821;28;20034;-70
2024/01/14 01:22:58;;;;;;;32.40;17.00;;;6.80;79.10;;;;;;5093057;28;20103;-70
2024/01/14 01:25:25;;;;;;;31.40;17.20;;;6.80;79.20;;;;;;5092344;28;20334;-70
2024/01/14 01:27:51;;;;;;;32.97;17.03;;;6.80;79.20;;;;;;5092314;28;20020;-70
2024/01/14 01:30:17;;;;;;;36.53;18.60;;;6.80;79.20;;;;;;5091695;28;20034;-70
2024/01/14 01:32:43;;;;;;;32.63;17.60;;;6.80;79.10;;;;;;5093063;28;20356;-70
2024/01/14 01:35:09;;;;;;;31.47;18.47;;;6.80;79.20;;;;;;5090989;28;20032;-70
2024/01/14 01:37:35;;;;;;;33.47;17.30;;;6.80;79.20;;;;;;5093283;28;20032;-70
2024/01/14 01:40:01;;;;;;;33.30;17.83;;;6.80;79.20;;;;;;5093332;28;20028;-70
2024/01/14 01:42:27;;;;;;;33.47;18.17;;;6.80;79.20;;;;;;5092227;28;20414;-70
2024/01/14 01:44:52;;;;;;;33.03;18.10;;;6.70;79.20;;;;;;5083912;28;20127;-70
2024/01/14 01:47:19;;;;;;;33.70;18.10;;;6.80;79.20;;;;;;5092259;28;20067;-70
2024/01/14 01:49:45;;;;;;;33.27;18.37;;;6.80;79.20;;;;;;5091529;28;20035;-70
2024/01/14 01:52:11;;;;;;;36.33;20.03;;;6.70;79.10;;;;;;5093242;28;20024;-70
2024/01/14 01:54:39;;;;;;;38.47;19.50;;;6.70;79.10;;;;;;5092655;28;20111;-70
2024/01/14 01:57:06;;;;;;;32.80;18.27;;;6.70;79.20;;;;;;5089903;28;20345;-70
2024/01/14 01:59:33;;;;;;;33.43;17.67;;;6.70;79.10;;;;;;5101313;28;20036;-70
2024/01/14 02:02:00;;;;;;;34.80;18.20;;;6.70;79.10;;;;;;5095669;28;20020;-70
2024/01/14 02:04:30;;;;;;;34.37;19.27;;;6.70;79.20;;;;;;5079219;28;20081;-70
2024/01/14 02:06:56;;;;;;;35.60;18.87;;;6.70;79.80;;;;;;5096524;28;20051;-70
2024/01/14 02:09:22;;;;;;;33.17;18.67;;;6.70;79.80;;;;;;5094768;28;20025;-70
2024/01/14 02:11:48;;;;;;;35.93;19.00;;;6.70;79.20;;;;;;5092605;28;20042;-70
2024/01/14 02:14:14;;;;;;;36.37;19.77;;;6.70;79.10;;;;;;5094121;28;20082;-70
2024/01/14 02:16:39;;;;;;;33.47;18.07;;;6.70;79.10;;;;;;5091492;28;20512;-70
2024/01/14 02:19:05;;;;;;;36.93;20.73;;;6.70;79.10;;;;;;5096614;28;20025;-70
2024/01/14 02:21:44;;;;;;;39.43;20.30;;;6.70;79.20;;;;;;5078259;28;20036;-70
2024/01/14 02:24:30;;;;;;;36.10;20.50;;;6.70;79.20;;;;;;5095153;28;20020;-70
2024/01/14 02:26:56;;;;;;;39.43;19.97;;;6.70;79.20;;;;;;5095024;28;20028;-70
2024/01/14 02:29:23;;;;;;;35.73;20.03;;;6.60;79.20;;;;;;5096304;28;20039;-70
2024/01/14 02:31:49;;;;;;;36.07;20.20;;;6.70;79.20;;;;;;5095679;28;20035;-70
2024/01/14 02:34:15;;;;;;;43.87;21.43;;;6.70;79.20;;;;;;5093581;28;20093;-70
2024/01/14 02:36:41;;;;;;;39.77;21.53;;;6.70;79.20;;;;;;5107249;28;20548;-70
2024/01/14 02:39:07;;;;;;;43.70;22.47;;;6.70;79.20;;;;;;5096215;28;20423;-70
2024/01/14 02:41:33;;;;;;;41.07;23.07;;;6.70;79.20;;;;;;5095794;28;20032;-69
2024/01/14 02:43:59;;;;;;;40.43;22.90;;;6.70;79.20;;;;;;5094258;28;20405;-69
2024/01/14 02:46:26;;;;;;;41.27;22.33;;;6.70;79.20;;;;;;5096863;28;20119;-69
2024/01/14 02:48:52;;;;;;;42.47;23.67;;;6.70;79.20;;;;;;5093170;28;20028;-69
2024/01/14 02:51:18;;;;;;;40.77;23.43;;;6.70;79.20;;;;;;5095829;28;20032;-69
2024/01/14 02:53:43;;;;;;;39.90;21.63;;;6.70;79.10;;;;;;5094799;28;20081;-69
2024/01/14 02:56:10;;;;;;;39.10;20.93;;;6.70;79.10;;;;;;5106825;28;20020;-69
2024/01/14 02:58:37;;;;;;;41.90;24.10;;;6.70;79.10;;;;;;5096679;28;20036;-69
2024/01/14 03:01:03;;;;;;;40.40;23.03;;;6.70;79.00;;;;;;5093791;28;20023;-69
2024/01/14 03:03:29;;;;;;;41.57;23.13;;;6.70;79.00;;;;;;5096094;28;20102;-69
2024/01/14 03:05:55;;;;;;;43.90;23.63;;;6.70;79.00;;;;;;5094541;28;20143;-69
2024/01/14 03:08:20;;;;;;;38.80;23.27;;;6.70;79.10;;;;;;5096008;28;20016;-69
2024/01/14 03:10:46;;;;;;;38.97;22.20;;;6.60;79.00;;;;;;5105824;28;20508;-69
2024/01/14 03:13:15;;;;;;;41.17;23.60;;;6.60;79.00;;;;;;5094376;28;20403;-70
2024/01/14 03:15:42;;;;;;;37.80;21.13;;;6.60;79.10;;;;;;5095245;28;20114;-69
2024/01/14 03:18:07;;;;;;;35.43;19.50;;;6.60;79.20;;;;;;5094306;28;20024;-69
2024/01/14 03:20:34;;;;;;;40.30;20.90;;;6.60;79.10;;;;;;5094155;28;20539;-69
2024/01/14 03:22:59;;;;;;;37.17;21.17;;;6.60;79.10;;;;;;5093352;28;20478;-69
2024/01/14 03:25:25;;;;;;;39.10;22.23;;;6.60;79.00;;;;;;5094162;28;20036;-69
2024/01/14 03:27:51;;;;;;;38.30;21.03;;;6.60;79.00;;;;;;5094821;28;20031;-69
2024/01/14 03:30:18;;;;;;;39.47;22.27;;;6.60;79.00;;;;;;5094200;28;20038;-69
2024/01/14 03:32:43;;;;;;;40.33;21.87;;;6.60;79.00;;;;;;5081146;28;20422;-69
2024/01/14 03:35:09;;;;;;;38.50;21.73;;;6.60;79.70;;;;;;5095061;28;20020;-69
2024/01/14 03:37:35;;;;;;;37.23;20.30;;;6.60;79.00;;;;;;5092043;28;20032;-69
2024/01/14 03:40:01;;;;;;;39.23;22.30;;;6.60;79.00;;;;;;5080724;28;20355;-69
2024/01/14 03:42:27;;;;;;;40.07;21.57;;;6.60;79.00;;;;;;5093808;28;20081;-69
2024/01/14 03:44:53;;;;;;;43.50;24.07;;;6.60;79.00;;;;;;5094942;28;20436;-69
2024/01/14 03:47:18;;;;;;;37.20;21.73;;;6.60;79.00;;;;;;5094754;28;20042;-69
2024/01/14 03:49:44;;;;;;;40.30;23.33;;;6.60;79.00;;;;;;5093901;28;20117;-70
2024/01/14 03:52:10;;;;;;;41.27;22.47;;;6.60;79.00;;;;;;5095459;28;20060;-69
2024/01/14 03:54:35;;;;;;;46.00;24.80;;;6.60;79.00;;;;;;5093767;28;20032;-69
2024/01/14 03:57:01;;;;;;;41.67;22.70;;;6.50;78.90;;;;;;5093560;28;20051;-69
2024/01/14 03:59:27;;;;;;;39.63;23.70;;;6.50;79.00;;;;;;5091193;28;20016;-69
2024/01/14 04:01:53;;;;;;;45.80;24.53;;;6.50;79.00;;;;;;5094331;28;20379;-69
2024/01/14 04:04:19;;;;;;;42.97;22.53;;;6.50;78.90;;;;;;5096301;28;20036;-69
2024/01/14 04:06:45;;;;;;;39.97;22.23;;;6.50;78.90;;;;;;5095241;28;20117;-69
2024/01/14 04:09:11;;;;;;;44.37;22.37;;;6.50;79.00;;;;;;5075213;28;20028;-70
2024/01/14 04:11:37;;;;;;;43.00;22.67;;;6.50;79.00;;;;;;5096505;28;20092;-69
2024/01/14 04:14:02;;;;;;;36.03;20.70;;;6.40;79.00;;;;;;5094659;28;20024;-70
2024/01/14 04:16:39;;;;;;;37.67;20.27;;;6.40;79.10;;;;;;5092971;28;20020;-69
2024/01/14 04:19:05;;;;;;;38.50;22.10;;;6.40;79.00;;;;;;5091975;28;20023;-69
2024/01/14 04:21:31;;;;;;;37.53;21.37;;;6.40;79.00;;;;;;5093755;28;20034;-70
2024/01/14 04:24:02;;;;;;;36.97;20.47;;;6.40;79.10;;;;;;5095922;28;20095;-69
2024/01/14 04:26:28;;;;;;;37.17;20.33;;;6.40;79.00;;;;;;5093555;28;20110;-69
2024/01/14 04:28:54;;;;;;;42.77;22.63;;;6.40;79.00;;;;;;5096375;28;20112;-69
2024/01/14 04:31:20;;;;;;;41.37;24.40;;;6.40;79.00;;;;;;5094383;28;20107;-69
2024/01/14 04:33:47;;;;;;;40.40;22.20;;;6.40;78.90;;;;;;5091950;28;20520;-69
2024/01/14 04:36:14;;;;;;;42.20;22.07;;;6.40;79.00;;;;;;5093818;28;20024;-69
2024/01/14 04:38:40;;;;;;;38.77;22.30;;;6.40;79.00;;;;;;5093026;28;20028;-69
2024/01/14 04:41:06;;;;;;;42.93;23.50;;;6.40;79.00;;;;;;5093949;28;20483;-69
2024/01/14 04:43:32;;;;;;;42.00;23.83;;;6.40;79.00;;;;;;5093544;28;20062;-69
2024/01/14 04:45:57;;;;;;;46.07;24.37;;;6.40;78.90;;;;;;5094262;28;20066;-69
2024/01/14 04:48:23;;;;;;;44.40;24.33;;;6.40;79.00;;;;;;5094459;28;20024;-69
2024/01/14 04:50:51;;;;;;;39.00;22.57;;;6.40;79.00;;;;;;5095073;28;20039;-69
2024/01/14 04:53:17;;;;;;;43.43;23.73;;;6.40;79.00;;;;;;5087390;28;20478;-69
2024/01/14 04:55:42;;;;;;;46.17;24.57;;;6.40;78.90;;;;;;5091101;28;20059;-69
2024/01/14 04:58:08;;;;;;;46.17;23.43;;;6.40;79.00;;;;;;5093076;28;20480;-69
2024/01/14 05:00:35;;;;;;;41.60;23.93;;;6.40;78.90;;;;;;5093462;28;20028;-69
2024/01/14 05:03:01;;;;;;;45.03;24.10;;;6.40;78.80;;;;;;5092733;28;20031;-69
2024/01/14 05:05:26;;;;;;;45.00;23.33;;;6.40;78.80;;;;;;5091976;28;20069;-69
2024/01/14 05:07:52;;;;;;;43.40;24.13;;;6.40;78.80;;;;;;5091645;28;20112;-69
2024/01/14 05:10:18;;;;;;;44.93;23.97;;;6.40;78.80;;;;;;5092422;28;20457;-69
2024/01/14 05:12:44;;;;;;;41.90;24.20;;;6.40;78.80;;;;;;5092599;28;20043;-69
2024/01/14 05:15:09;;;;;;;41.00;23.30;;;6.40;78.80;;;;;;5091280;28;20035;-69
2024/01/14 05:17:36;;;;;;;40.90;23.40;;;6.40;78.80;;;;;;5092226;28;20058;-69
2024/01/14 05:20:02;;;;;;;41.60;22.53;;;6.40;78.80;;;;;;5092505;28;20043;-69
2024/01/14 05:22:28;;;;;;;43.20;23.43;;;6.40;78.70;;;;;;5093317;28;20028;-69
2024/01/14 05:24:55;;;;;;;41.40;23.87;;;6.40;78.70;;;;;;5075460;28;20031;-69
2024/01/14 05:27:21;;;;;;;45.03;23.10;;;6.40;78.70;;;;;;5090497;28;20360;-69
2024/01/14 05:29:47;;;;;;;42.90;23.47;;;6.40;78.60;;;;;;5074089;28;20401;-69
2024/01/14 05:32:15;;;;;;;39.40;22.40;;;6.30;78.60;;;;;;5091980;28;20040;-69
2024/01/14 05:34:42;;;;;;;42.47;21.90;;;6.40;78.70;;;;;;5096356;28;20039;-69
2024/01/14 05:37:08;;;;;;;38.60;22.47;;;6.30;78.60;;;;;;5095555;28;20039;-69
2024/01/14 05:39:34;;;;;;;41.53;22.67;;;6.30;78.60;;;;;;5096542;28;20084;-69
2024/01/14 05:42:00;;;;;;;42.23;22.50;;;6.30;78.60;;;;;;5096130;28;20035;-69
2024/01/14 05:44:26;;;;;;;41.80;22.93;;;6.30;78.60;;;;;;5096799;28;20043;-69
2024/01/14 05:46:52;;;;;;;42.07;21.70;;;6.30;78.60;;;;;;5099882;28;20031;-69
2024/01/14 05:49:18;;;;;;;39.80;21.63;;;6.30;78.50;;;;;;5080400;28;20032;-69
2024/01/14 05:51:44;;;;;;;40.80;21.17;;;6.30;78.50;;;;;;5097774;28;20031;-69
2024/01/14 05:54:10;;;;;;;39.67;21.40;;;6.30;78.50;;;;;;5097952;28;20027;-69
2024/01/14 05:56:36;;;;;;;37.17;20.67;;;6.30;78.50;;;;;;5096078;28;20055;-69
2024/01/14 05:59:02;;;;;;;38.33;19.87;;;6.30;79.20;;;;;;5098046;28;20090;-69
2024/01/14 06:01:28;;;;;;;40.00;20.50;;;6.20;78.50;;;;;;5097399;28;20039;-69
2024/01/14 06:03:55;;;;;;;36.67;20.37;;;6.30;78.60;;;;;;5097709;28;20020;-69
2024/01/14 06:06:20;;;;;;;38.13;21.03;;;6.20;78.50;;;;;;5105373;28;20043;-69
2024/01/14 06:08:46;;;;;;;37.20;21.10;;;6.30;78.40;;;;;;5098214;28;20477;-69
2024/01/14 06:11:13;;;;;;;35.00;19.83;;;6.20;78.40;;;;;;5097491;28;20402;-69
2024/01/14 06:13:39;;;;;;;30.87;18.33;;;6.20;78.40;;;;;;5097226;28;20031;-69
2024/01/14 06:16:05;;;;;;;31.87;18.23;;;6.20;79.10;;;;;;5103969;28;20039;-69
2024/01/14 06:18:31;;;;;;;37.93;19.93;;;6.30;78.40;;;;;;5098478;28;20024;-69
2024/01/14 06:20:59;;;;;;;35.90;20.00;;;6.20;78.40;;;;;;5097355;28;20441;-69
2024/01/14 06:23:25;;;;;;;30.40;17.17;;;6.20;78.40;;;;;;5104775;28;20386;-69
2024/01/14 06:25:51;;;;;;;35.63;19.07;;;6.20;78.40;;;;;;5099737;28;20016;-69
2024/01/14 06:28:17;;;;;;;38.03;18.67;;;6.20;78.30;;;;;;5101520;28;20338;-69
2024/01/14 06:30:43;;;;;;;33.07;17.23;;;6.10;78.30;;;;;;5095802;28;20373;-68
2024/01/14 06:33:09;;;;;;;36.07;18.83;;;6.10;78.20;;;;;;5093959;28;20124;-69
2024/01/14 06:35:35;;;;;;;38.70;18.77;;;6.10;78.20;;;;;;5095569;28;20513;-69
2024/01/14 06:38:01;;;;;;;32.03;17.73;;;6.10;78.20;;;;;;5094740;28;20028;-69
2024/01/14 06:40:27;;;;;;;33.43;18.40;;;6.10;78.20;;;;;;5094583;28;20072;-69
2024/01/14 06:42:52;;;;;;;31.90;17.37;;;6.10;78.20;;;;;;5098060;28;20035;-69
2024/01/14 06:45:18;;;;;;;37.03;19.37;;;6.10;78.20;;;;;;5094601;28;20030;-69
2024/01/14 06:47:44;;;;;;;36.00;18.60;;;6.10;78.20;;;;;;5096744;28;20024;-69
2024/01/14 06:50:11;;;;;;;35.83;18.53;;;6.10;78.20;;;;;;5095169;28;20062;-69
2024/01/14 06:52:37;;;;;;;36.23;19.73;;;6.00;78.20;;;;;;5095521;28;20038;-69
2024/01/14 06:55:06;;;;;;;36.97;18.87;;;6.00;78.10;;;;;;5095316;28;20028;-69
2024/01/14 06:57:33;;;;;;;37.20;19.30;;;6.00;78.20;;;;;;5096752;28;20047;-69
2024/01/14 06:59:59;;;;;;;34.53;18.40;;;6.00;78.20;;;;;;5094770;28;20332;-69
2024/01/14 07:02:26;;;;;;;35.50;18.57;;;6.00;78.20;;;;;;5096531;28;20032;-69
2024/01/14 07:04:52;;;;;;;36.63;19.60;;;6.00;78.10;;;;;;5096296;28;20020;-69
2024/01/14 07:07:17;;;;;;;35.23;17.90;;;6.00;78.10;;;;;;5097121;28;20032;-69
2024/01/14 07:09:43;;;;;;;36.67;18.77;;;6.00;78.10;;;;;;5103690;28;20048;-70
2024/01/14 07:12:09;;;;;;;34.70;19.80;;;6.00;78.10;;;;;;5092835;28;20036;-68
2024/01/14 07:14:35;;;;;;;39.37;20.63;;;6.00;78.10;;;;;;5095951;28;20101;-69
2024/01/14 07:17:01;;;;;;;39.40;20.53;;;6.00;78.10;;;;;;5100253;28;20032;-65
2024/01/14 07:19:27;;;;;;;38.90;20.47;;;6.00;78.10;;;;;;5094134;28;20103;-70
2024/01/14 07:21:52;;;;;;;38.77;21.07;;;6.00;78.10;;;;;;5094586;28;20067;-65
2024/01/14 07:24:18;;;;;;;40.93;21.77;;;6.00;78.10;;;;;;5093043;28;20048;-65
2024/01/14 07:26:44;;;;;;;38.17;22.07;;;5.90;78.10;;;;;;5096144;28;20057;-67
2024/01/14 07:29:10;;;;;;;37.87;21.30;;;6.00;78.10;;;;;;5093444;28;20433;-65
2024/01/14 07:31:35;;;;;;;41.37;21.60;;;6.00;78.00;;;;;;5095976;28;20089;-65
2024/01/14 07:34:01;;;;;;;40.73;22.53;;;6.00;78.00;;;;;;5105204;27;20086;-67
2024/01/14 07:36:27;;;;;;;41.20;23.00;;;6.00;78.10;;;;;;5092896;28;20024;-67
2024/01/14 07:38:53;;;;;;;43.30;23.37;;;6.00;78.10;;;;;;5093198;28;20089;-66
2024/01/14 07:41:19;;;;;;;45.93;24.67;;;5.90;78.00;;;;;;5091975;28;20038;-66
2024/01/14 07:43:46;;;;;;;47.57;24.77;;;5.90;78.00;;;;;;5092307;28;20028;-66
2024/01/14 07:46:12;;;;;;;45.87;23.57;;;6.00;78.10;;;;;;5092763;28;20030;-66
2024/01/14 07:48:38;;;;;;;47.03;23.73;;;5.90;78.00;;;;;;5094165;28;20052;-67
2024/01/14 07:51:04;;;;;;;49.70;27.20;;;5.90;78.00;;;;;;5092410;28;20032;-67
2024/01/14 07:53:30;;;;;;;44.13;23.80;;;5.90;78.00;;;;;;5097797;28;20042;-66
2024/01/14 07:55:56;;;;;;;45.07;25.20;;;5.90;78.00;;;;;;5080894;28;20024;-67
2024/01/14 07:58:22;;;;;;;44.07;25.40;;;5.90;78.10;;;;;;5092506;28;20384;-70
2024/01/14 08:00:47;;;;;;;41.77;24.23;;;5.90;78.10;;;;;;5091997;28;20020;-70
2024/01/14 08:03:13;;;;;;;42.23;22.93;;;6.00;78.10;;;;;;5091748;28;20020;-71
2024/01/14 08:05:39;;;;;;;44.50;24.90;;;5.90;78.10;;;;;;5093948;28;20024;-70
2024/01/14 08:08:05;;;;;;;43.13;24.53;;;6.00;78.10;;;;;;5092010;28;20591;-70
2024/01/14 08:10:32;;;;;;;43.93;24.57;;;6.00;78.00;;;;;;5095067;28;20313;-70
2024/01/14 08:12:58;;;;;;;46.27;24.90;;;5.90;77.90;;;;;;5092856;28;20031;-70
2024/01/14 08:15:24;;;;;;;42.97;24.07;;;6.00;78.00;;;;;;5099325;28;20354;-70
2024/01/14 08:17:50;;;;;;;47.90;24.70;;;5.90;77.90;;;;;;5091697;28;20032;-73
2024/01/14 08:20:16;;;;;;;38.17;23.50;;;5.90;77.90;;;;;;5090903;28;20064;-72
2024/01/14 08:22:42;;;;;;;44.40;24.47;;;6.00;78.10;;;;;;5089770;28;20032;-71
2024/01/14 08:25:09;;;;;;;41.53;23.30;;;5.90;78.00;;;;;;5094501;28;20030;-73
2024/01/14 08:27:35;;;;;;;43.00;22.27;;;6.00;78.00;;;;;;5102270;27;20027;-72
2024/01/14 08:30:01;;;;;;;41.03;22.70;;;6.00;78.00;;;;;;5097537;28;20042;-72
2024/01/14 08:32:27;;;;;;;44.53;23.30;;;5.90;77.90;;;;;;5089855;28;20047;-71
2024/01/14 08:34:53;;;;;;;45.57;22.63;;;6.00;77.90;;;;;;5068743;28;20028;-73
2024/01/14 08:37:19;;;;;;;49.13;24.10;;;5.90;77.90;;;;;;5089443;28;20028;-71
2024/01/14 08:39:44;;;;;;;45.27;24.53;;;5.90;77.90;;;;;;5091547;28;20345;-72
2024/01/14 08:42:10;;;;;;;43.27;23.23;;;5.90;77.90;;;;;;5077938;28;20037;-70
2024/01/14 08:44:36;;;;;;;42.57;22.37;;;5.90;77.90;;;;;;5085187;28;20056;-71
2024/01/14 08:47:02;;;;;;;43.53;23.53;;;6.00;78.00;;;;;;5098074;28;20067;-70
2024/01/14 08:49:29;;;;;;;40.73;22.93;;;6.00;77.90;;;;;;5081549;28;20068;-72
2024/01/14 08:51:56;;;;;;;46.20;24.27;;;6.00;77.80;;;;;;5087846;28;20424;-72
2024/01/14 08:54:22;;;;;;;44.50;23.90;;;6.00;77.70;;;;;;5091840;28;20063;-70
2024/01/14 08:56:48;;;;;;;41.03;23.40;;;6.00;77.70;;;;;;5093045;28;20356;-74
2024/01/14 08:59:14;;;;;;;40.37;23.23;;;6.00;77.70;;;;;;5092092;28;20112;-71
2024/01/14 09:01:40;;;;;;;42.57;23.13;;;6.00;77.70;;;;;;5093062;28;20020;-73
2024/01/14 09:04:06;;;;;;;40.53;23.00;;;6.00;77.80;;;;;;5099416;28;20024;-74
2024/01/14 09:06:31;;;;;;;41.57;24.03;;;6.00;77.80;;;;;;5090576;28;20020;-73
2024/01/14 09:08:57;;;;;;;42.83;23.10;;;6.00;77.80;;;;;;5084061;28;20613;-72
2024/01/14 09:11:23;;;;;;;42.20;23.60;;;6.00;77.70;;;;;;5095508;28;20032;-71
2024/01/14 09:13:49;;;;;;;43.77;24.73;;;6.00;77.70;;;;;;5111701;28;20056;-73
2024/01/14 09:16:15;;;;;;;43.37;23.13;;;6.00;77.70;;;;;;5095310;28;20031;-73
2024/01/14 09:18:40;;;;;;;44.37;22.93;;;6.00;77.70;;;;;;5096941;28;20036;-72
2024/01/14 09:21:06;;;;;;;43.77;24.07;;;6.00;77.70;;;;;;5085421;28;20028;-74
2024/01/14 09:23:32;;;;;;;41.27;22.20;;;6.00;77.70;;;;;;5101129;28;20036;-73
2024/01/14 09:25:58;;;;;;;40.93;23.80;;;6.00;77.70;;;;;;5097296;28;20024;-73
2024/01/14 09:28:24;;;;;;;43.90;22.60;;;6.00;77.70;;;;;;5101359;28;20101;-74
2024/01/14 09:30:50;;;;;;;42.70;24.10;;;6.00;77.70;;;;;;5099623;28;20067;-73
2024/01/14 09:33:17;;;;;;;40.17;21.77;;;6.00;77.70;;;;;;5098796;28;20047;-74
2024/01/14 09:35:43;;;;;;;41.70;22.90;;;6.00;77.80;;;;;;5096447;28;20482;-74
2024/01/14 09:38:09;;;;;;;43.40;22.53;;;6.00;77.70;;;;;;5097425;28;20032;-74
2024/01/14 09:40:37;;;;;;;37.97;21.30;;;6.00;77.70;;;;;;5097488;28;20063;-73
2024/01/14 09:43:05;;;;;;;39.87;21.57;;;6.10;77.70;;;;;;5096912;28;20036;-74
2024/01/14 09:45:34;;;;;;;39.57;21.73;;;6.10;77.70;;;;;;5094884;28;20020;-74
2024/01/14 09:48:00;;;;;;;42.43;21.90;;;6.10;77.70;;;;;;5098012;28;20047;-74
2024/01/14 09:50:26;;;;;;;38.33;21.50;;;6.10;77.70;;;;;;5093637;28;20048;-74
2024/01/14 09:52:55;;;;;;;40.60;21.13;;;6.10;77.70;;;;;;5098247;28;20075;-74
2024/01/14 09:55:21;;;;;;;37.30;21.07;;;6.10;77.80;;;;;;5097665;28;20056;-74
2024/01/14 09:57:49;;;;;;;43.70;21.93;;;6.10;77.80;;;;;;5096403;28;20381;-74
2024/01/14 10:00:15;;;;;;;37.00;20.03;;;6.00;77.90;;;;;;5105046;28;20086;-74
2024/01/14 10:02:42;;;;;;;40.27;22.13;;;6.00;77.80;;;;;;5096466;28;20024;-74
2024/01/14 10:05:08;;;;;;;39.77;21.03;;;6.10;77.80;;;;;;5096647;28;20031;-74
2024/01/14 10:07:35;;;;;;;36.43;21.60;;;6.10;77.70;;;;;;5097514;28;20024;-74
2024/01/14 10:10:01;;;;;;;41.93;21.63;;;6.10;77.80;;;;;;5090870;28;20027;-74
2024/01/14 10:12:27;;;;;;;37.93;21.27;;;6.10;77.80;;;;;;5100381;28;20340;-74
2024/01/14 10:14:59;;;;;;;37.80;21.27;;;6.20;77.80;;;;;;5096482;28;20451;-74
2024/01/14 10:17:26;;;;;;;39.80;21.20;;;6.20;77.80;;;;;;5096157;28;20130;-74
2024/01/14 10:19:57;;;;;;;40.00;22.37;;;6.20;77.80;;;;;;5074914;28;20446;-74
2024/01/14 10:22:25;;;;;;;41.28;21.02;;;6.20;77.70;;;;;;5097207;28;20111;-74
2024/01/14 10:24:52;;;;;;;35.70;19.90;;;6.20;77.60;;;;;;5101245;28;20036;-74
2024/01/14 10:27:23;;;;;;;40.23;21.37;;;6.30;77.70;;;;;;5111456;28;20074;-74
2024/01/14 10:29:50;;;;;;;41.53;21.70;;;6.30;77.70;;;;;;5096085;28;20036;-74
2024/01/14 10:32:17;;;;;;;38.93;21.63;;;6.30;77.70;;;;;;5095967;28;20035;-74
2024/01/14 10:34:44;;;;;;;42.67;22.70;;;6.30;77.70;;;;;;5097525;28;20036;-74
2024/01/14 10:37:11;;;;;;;36.27;21.63;;;6.30;77.70;;;;;;5079196;28;20145;-74
2024/01/14 10:39:38;;;;;;;38.57;20.97;;;6.30;77.70;;;;;;5096829;28;20054;-74
2024/01/14 10:42:04;;;;;;;41.63;22.17;;;6.30;77.70;;;;;;5094908;28;20476;-75
2024/01/14 10:44:33;;;;;;;40.90;21.50;;;6.30;77.70;;;;;;5095118;28;20463;-74
2024/01/14 10:47:02;;;;;;;44.27;23.07;;;6.30;77.70;;;;;;5106705;27;20036;-74
2024/01/14 10:49:29;;;;;;;39.87;23.20;;;6.30;77.70;;;;;;5095620;28;20055;-74
2024/01/14 10:52:12;;;;;;;46.03;23.43;;;6.30;77.70;;;;;;5102350;28;20023;-74
2024/01/14 10:54:52;;;;;;;38.60;21.73;;;6.30;77.70;;;;;;5115942;28;20446;-74
2024/01/14 10:57:30;;;;;;;41.67;22.53;;;6.30;77.70;;;;;;5095227;28;20132;-74
2024/01/14 11:00:06;;;;;;;42.80;21.57;;;6.20;77.80;;;;;;5099420;28;20102;-74
2024/01/14 11:02:37;;;;;;;43.10;23.73;;;6.20;77.80;;;;;;5094670;28;20479;-74
2024/01/14 11:05:04;;;;;;;40.13;22.80;;;6.20;77.70;;;;;;5094889;28;20020;-74
2024/01/14 11:07:33;;;;;;;43.07;22.73;;;6.20;77.80;;;;;;5094600;28;20472;-75
2024/01/14 11:09:59;;;;;;;43.83;23.30;;;6.20;78.00;;;;;;5099760;28;20116;-74
2024/01/14 11:12:44;;;;;;;44.10;24.00;;;6.20;78.00;;;;;;5096826;27;20353;-74
2024/01/14 11:15:30;;;;;;;40.03;22.93;;;6.20;77.90;;;;;;5075830;28;20028;-74
2024/01/14 11:18:05;;;;;;;44.00;23.53;;;6.20;77.80;;;;;;5089045;28;20043;-73
2024/01/14 11:20:35;;;;;;;43.90;22.27;;;6.10;77.80;;;;;;5099476;28;20081;-73
2024/01/14 11:23:01;;;;;;;43.47;23.40;;;6.10;77.90;;;;;;5094729;28;20028;-73
2024/01/14 11:25:35;;;;;;;47.23;24.60;;;6.20;78.00;;;;;;5075612;28;20075;-73
2024/01/14 11:28:04;;;;;;;42.13;23.13;;;6.20;78.10;;;;;;5091097;28;20032;-72
2024/01/14 11:30:48;;;;;;;41.30;22.93;;;6.20;78.10;;;;;;5093778;28;20031;-73
2024/01/14 11:33:42;;;;;;;41.10;21.80;;;6.20;78.10;;;;;;5092508;28;20127;-73
2024/01/14 11:36:09;;;;;;;40.63;21.23;;;6.20;78.10;;;;;;5093888;28;20035;-74
2024/01/14 11:38:44;;;;;;;41.60;22.43;;;6.20;78.10;;;;;;5092333;28;20024;-74
2024/01/14 11:41:30;;;;;;;40.70;22.10;;;6.20;78.10;;;;;;5093120;28;20058;-74
2024/01/14 11:44:08;;;;;;;42.93;22.10;;;6.20;78.00;;;;;;5094782;28;20285;-73
2024/01/14 11:46:54;;;;;;;43.23;21.50;;;6.20;78.10;;;;;;5075674;28;20449;-75
2024/01/14 11:49:23;;;;;;;43.47;21.83;;;6.20;78.10;;;;;;5092235;28;20120;-74
2024/01/14 11:52:07;;;;;;;39.47;21.60;;;6.20;78.20;;;;;;5095370;28;20053;-77
2024/01/14 11:54:33;;;;;;;40.13;21.90;;;6.20;78.20;;;;;;5091628;28;20020;-76
2024/01/14 11:57:01;;;;;;;42.37;22.77;;;6.20;78.20;;;;;;5093320;28;20083;-76
2024/01/14 11:59:26;;;;;;;39.73;21.03;;;6.30;78.20;;;;;;5093047;28;20067;-76
2024/01/14 12:01:52;;;;;;;40.40;22.30;;;6.30;78.20;;;;;;5092290;28;20143;-75
2024/01/14 12:04:18;;;;;;;37.87;21.57;;;6.30;78.20;;;;;;5092963;28;20518;-75
2024/01/14 12:06:45;;;;;;;38.37;21.90;;;6.30;78.20;;;;;;5092364;28;20078;-76
2024/01/14 12:09:15;;;;;;;40.10;20.67;;;6.30;78.20;;;;;;5075768;28;20441;-75
2024/01/14 12:11:42;;;;;;;39.03;21.10;;;6.30;78.30;;;;;;5093360;28;20036;-75
2024/01/14 12:14:09;;;;;;;40.20;19.93;;;6.30;78.30;;;;;;5076408;28;20032;-75
2024/01/14 12:16:35;;;;;;;36.27;20.63;;;6.30;78.10;;;;;;5093181;28;20016;-75
2024/01/14 12:19:21;;;;;;;35.10;20.07;;;6.30;78.10;;;;;;5092277;28;20402;-75
2024/01/14 12:21:47;;;;;;;35.30;19.10;;;6.40;78.10;;;;;;5091488;28;20051;-74
2024/01/14 12:24:13;;;;;;;36.07;18.93;;;6.30;78.10;;;;;;5098674;28;20028;-75
2024/01/14 12:26:39;;;;;;;37.10;19.57;;;6.30;78.10;;;;;;5095171;28;20038;-75
2024/01/14 12:29:05;;;;;;;37.97;19.67;;;6.30;78.10;;;;;;5093969;28;20050;-75
2024/01/14 12:31:34;;;;;;;33.93;17.77;;;6.30;78.10;;;;;;5095276;28;20520;-75
2024/01/14 12:34:08;;;;;;;32.47;17.43;;;6.30;78.10;;;;;;5092888;28;20051;-75